メインページ
METAR-TAF:

METAR-TAF

空港 :

Miles City, モンタナ州, アメリカ合衆国

緯度: 46-25-41N, 経度: 105-53-11W, 海抜: 801m

現時点の気象観測

当レポートは51分前の17:53(UTC)に作成
西/北西の風 14kt、最大20ktの突風を伴う
気温 21°C
湿度 49%
気圧 1012 hPa
視程: 16.1km
高度5000ftの雲は散在している
高度6000ftの雲は散在している
高度7000ftの千切れ雲あり

METAR: KMLS 261753Z AUTO 29014G20KT 10SM SCT050 SCT060 BKN070 21/10 A2988 RMK AO2 SLP111 T02110100 10211 20078 58007

時間: 12:44 (18:44 UTC)

予報

当レポートは1時間16分前の17:28(UTC)に作成
予報は26日の 18時(UTC)から 27日の 18時(UTC)まで有効
西/北西の風 13kt、最大20ktの突風を伴う
視程: 10km
高度5000ftの雲は散在している
27日の 0100時(UTC)から
西の風 7kt
視程: 10km
高度7000ftの雲はほとんどない
27日の 1200時(UTC)から
北/北西の風 11kt
視程: 10km
高度7000ftの千切れ雲あり

TAF: KMLS 261728Z 2618/2718 29013G20KT P6SM SCT050 FM270100 27007KT P6SM FEW070 FM271200 34011KT P6SM BKN070

4,000以上の空港の気象観測と天気予報(METAR報とTAF報)

利用可能な観測所は地図上に黄色い丸と赤い丸で示す。

丸の上にカーソルを重ねると観測所名を参照できる。

次にクリックすると気象観測と天気予報を参照できる。

マップの切り替え:黒色「×」印の緑ボタンをクリックして拡大、「-」印の緑ボタンをクリックして縮小、緑色の三角印をクリックして隣りの地図に切り替え


METAR-TAF: